Impacts TAF Board
For situational awareness. Not to be used for flight planning purposes.
IDs:

KTPA - Tampa Intl Arpt, FL, US

Issued at 2339 UTC 19 Mar 2019
Updated at 0247 UTC 20 Mar 2019
Potential Impact None Slight Moderate High
Time<<21/03Z 21/04Z 21/05Z 21/06Z 21/07Z 21/08Z 21/09Z 21/10Z 21/11Z 21/12Z 21/13Z 21/14Z 21/15Z
Type PRVL PRVL PRVL
VIS >6 >6 >6
CIG 40 40 40
Cover BKN BKN BKN
FltCat VFR VFR VFR
WX -- -- --
WDir 10 10 10
WSpd 8 8 8
WGst -- -- --
Raw TAF
KTPA 192339Z 2000/2106 02006KT P6SM VCSH SCT025 OVC080
  TEMPO 2001/2002 -RA
  FM200300 03007KT P6SM SCT025 OVC050
  FM201700 02010G15KT P6SM BKN040
  FM202100 01008KT P6SM BKN040


METAR Board
Radar Display
Forecast Discussion
For situational awareness. Not to be used for flight planning purposes.